Time;durP1;ratioP1;P1;durP2;ratioP2;P2;SDS_P1;SDS_P2;PMS_P1;PMS_P2;Temp;Humidity;BMP_temperature;BMP_pressure;BME280_temperature;BME280_humidity;BME280_pressure;Samples;Min_cycle;Max_cycle;Signal;HPM_P1;HPM_P2
2024/01/12 00:02:01;;;;;;;0.80;0.50;;;;;;;-143.84;47.99;45228.06;5090787;28;20926;-60
2024/01/12 00:04:28;;;;;;;0.80;0.50;;;;;;;-143.84;47.81;45256.63;5090852;28;20461;-59
2024/01/12 00:06:55;;;;;;;1.30;1.20;;;;;;;-143.84;47.88;45231.88;5091167;28;20454;-59
2024/01/12 00:09:23;;;;;;;0.80;0.40;;;;;;;-143.84;47.91;45237.59;5090836;28;20431;-59
2024/01/12 00:11:50;;;;;;;2.00;1.80;;;;;;;-143.84;48.09;45233.78;5090605;28;20440;-59
2024/01/12 00:14:19;;;;;;;2.80;2.10;;;;;;;-143.84;47.81;45268.06;5090827;28;20436;-59
2024/01/12 00:16:48;;;;;;;0.80;0.70;;;;;;;-143.84;48.36;45245.19;5090761;28;20478;-59
2024/01/12 00:19:17;;;;;;;1.93;1.00;;;;;;;-143.84;48.66;45228.06;5090229;28;20480;-59
2024/01/12 00:21:44;;;;;;;1.87;1.50;;;;;;;-143.84;48.97;45245.19;5090593;28;20490;-59
2024/01/12 00:24:11;;;;;;;0.80;0.50;;;;;;;-143.84;49.34;45252.81;5090927;28;20523;-59
2024/01/12 00:26:39;;;;;;;0.80;0.50;;;;;;;-143.84;49.38;45247.09;5090600;28;20497;-59
2024/01/12 00:29:06;;;;;;;0.80;0.50;;;;;;;-143.84;49.37;45241.41;5090681;28;20440;-60
2024/01/12 00:31:35;;;;;;;1.93;1.13;;;;;;;-143.84;49.65;45254.72;5090575;28;20447;-60
2024/01/12 00:34:02;;;;;;;0.80;0.57;;;;;;;-143.84;50.05;45245.19;5090234;28;20444;-60
2024/01/12 00:36:29;;;;;;;0.80;0.50;;;;;;;-143.84;50.35;45254.72;5090486;28;20436;-59
2024/01/12 00:38:56;;;;;;;0.80;0.60;;;;;;;-143.84;49.92;45260.44;5090118;28;20616;-59
2024/01/12 00:41:23;;;;;;;0.80;0.47;;;;;;;-143.84;50.19;45264.25;5090344;28;20439;-59
2024/01/12 00:43:50;;;;;;;0.80;0.50;;;;;;;-143.84;49.55;45243.31;5090070;28;20498;-59
2024/01/12 00:46:18;;;;;;;4.33;1.47;;;;;;;-143.84;49.02;45237.59;5090424;28;20531;-59
2024/01/12 00:48:46;;;;;;;1.47;0.83;;;;;;;-143.84;48.40;45241.41;5090136;28;20440;-60
2024/01/12 00:51:13;;;;;;;0.80;0.60;;;;;;;-143.84;47.98;45241.41;5089981;28;20474;-59
2024/01/12 00:53:40;;;;;;;0.80;0.50;;;;;;;-143.84;47.71;45241.41;5090024;28;20435;-60
2024/01/12 00:56:08;;;;;;;0.83;0.67;;;;;;;-143.84;47.81;45250.91;5090108;28;20458;-59
2024/01/12 00:58:35;;;;;;;0.80;0.50;;;;;;;-143.84;47.64;45235.69;5089813;28;20431;-59
2024/01/12 01:01:03;;;;;;;1.23;1.07;;;;;;;-143.84;47.13;45273.78;5089555;28;21002;-59
2024/01/12 01:03:30;;;;;;;0.80;0.50;;;;;;;-143.84;47.09;45239.50;5089276;28;20479;-59
2024/01/12 01:05:59;;;;;;;0.80;0.50;;;;;;;-143.84;46.74;45228.06;5089843;28;20435;-59
2024/01/12 01:08:26;;;;;;;0.80;0.63;;;;;;;-143.84;46.71;45228.06;5089946;28;20444;-59
2024/01/12 01:10:53;;;;;;;0.80;0.50;;;;;;;-143.84;46.66;45224.25;5089703;28;20848;-59
2024/01/12 01:13:20;;;;;;;0.80;0.50;;;;;;;-143.84;46.70;45222.34;5089758;28;20509;-60
2024/01/12 01:15:47;;;;;;;0.80;0.50;;;;;;;-143.84;46.35;45250.91;5089824;28;20451;-60
2024/01/12 01:18:15;;;;;;;1.80;1.70;;;;;;;-143.84;46.40;45222.34;5089504;28;20433;-59
2024/01/12 01:20:42;;;;;;;0.80;0.50;;;;;;;-143.84;46.58;45264.25;5089642;28;20491;-60
2024/01/12 01:23:11;;;;;;;0.80;0.50;;;;;;;-143.84;46.83;45266.16;5089458;28;20441;-59
2024/01/12 01:25:39;;;;;;;0.80;0.50;;;;;;;-143.84;47.06;45214.72;5089677;28;20443;-59
2024/01/12 01:28:06;;;;;;;0.80;0.50;;;;;;;-143.84;47.20;45237.59;5089369;28;20444;-59
2024/01/12 01:30:33;;;;;;;0.80;0.50;;;;;;;-143.84;47.19;45243.31;5089811;28;20431;-60
2024/01/12 01:33:00;;;;;;;2.30;1.23;;;;;;;-143.84;47.25;45256.63;5089033;28;20448;-59
2024/01/12 01:35:27;;;;;;;1.33;1.23;;;;;;;-143.84;46.94;45273.78;5089384;28;20470;-59
2024/01/12 01:37:54;;;;;;;2.03;1.83;;;;;;;-143.84;47.05;45243.31;5089397;28;20823;-59
2024/01/12 01:40:23;;;;;;;1.30;0.87;;;;;;;-143.84;47.12;45247.09;5088697;28;20553;-60
2024/01/12 01:42:50;;;;;;;0.80;0.70;;;;;;;-143.84;47.11;45247.09;5097229;28;20439;-59
2024/01/12 01:45:17;;;;;;;0.97;0.87;;;;;;;-143.84;46.91;45224.25;5108986;28;20440;-59
2024/01/12 01:47:45;;;;;;;0.90;0.80;;;;;;;-143.84;46.73;45279.47;5109082;28;20499;-60
2024/01/12 01:50:14;;;;;;;0.80;0.70;;;;;;;-143.84;46.96;45249.00;5109485;28;20805;-60
2024/01/12 01:52:43;;;;;;;0.80;0.50;;;;;;;-143.84;47.04;45241.41;5109092;28;20861;-60
2024/01/12 01:55:12;;;;;;;0.80;0.50;;;;;;;-143.84;47.31;45258.53;5109642;28;20506;-59
2024/01/12 01:57:42;;;;;;;0.80;0.70;;;;;;;-143.84;47.27;45233.78;5109535;28;20435;-60
2024/01/12 02:00:11;;;;;;;0.80;0.50;;;;;;;-143.84;47.32;45250.91;5109828;28;20569;-59
2024/01/12 02:02:38;;;;;;;0.80;0.50;;;;;;;-143.84;47.21;45247.09;5109704;28;20514;-60
2024/01/12 02:05:07;;;;;;;0.80;0.40;;;;;;;-143.84;47.27;45235.69;5113556;28;20790;-59
2024/01/12 02:07:34;;;;;;;1.20;1.10;;;;;;;-143.84;47.06;45239.50;5114135;28;20431;-59
2024/01/12 02:10:02;;;;;;;0.80;0.50;;;;;;;-143.84;47.22;45256.63;5113713;28;20438;-59
2024/01/12 02:12:29;;;;;;;0.90;0.80;;;;;;;-143.84;47.06;45252.81;5113791;28;20450;-60
2024/01/12 02:14:58;;;;;;;0.80;0.50;;;;;;;-143.84;47.20;45241.41;5113590;28;20703;-60
2024/01/12 02:17:25;;;;;;;1.43;1.33;;;;;;;-143.84;47.12;45254.72;5113689;28;20435;-59
2024/01/12 02:19:58;;;;;;;0.80;0.70;;;;;;;-143.84;46.96;45231.88;5113251;28;20489;-60
2024/01/12 02:22:27;;;;;;;0.80;0.60;;;;;;;-143.84;46.70;45235.69;5113534;28;20435;-59
2024/01/12 02:24:54;;;;;;;0.90;0.70;;;;;;;-143.84;46.77;45245.19;5113278;28;21005;-59
2024/01/12 02:27:22;;;;;;;1.40;0.80;;;;;;;-143.84;46.83;45243.31;5113298;28;20443;-60
2024/01/12 02:29:52;;;;;;;3.57;2.93;;;;;;;-143.84;46.67;45239.50;5113148;28;20523;-60
2024/01/12 02:32:19;;;;;;;0.80;0.60;;;;;;;-143.84;46.84;45262.34;5113188;28;20534;-59
2024/01/12 02:34:46;;;;;;;0.80;0.40;;;;;;;-143.84;46.66;45247.09;5112974;28;20439;-59
2024/01/12 02:37:13;;;;;;;0.90;0.70;;;;;;;-143.84;46.55;45197.59;5109438;28;20510;-59
2024/01/12 02:39:42;;;;;;;0.80;0.60;;;;;;;-143.84;46.37;45226.16;5092505;28;20513;-60
2024/01/12 02:42:09;;;;;;;0.80;0.50;;;;;;;-143.84;46.44;45231.88;5092836;28;20521;-59
2024/01/12 02:44:36;;;;;;;0.80;0.50;;;;;;;-143.84;46.26;45245.19;5092751;28;20436;-59
2024/01/12 02:47:03;;;;;;;0.80;0.60;;;;;;;-143.84;46.06;45245.19;5092526;28;20431;-60
2024/01/12 02:49:30;;;;;;;1.60;1.03;;;;;;;-143.84;46.16;45243.31;5092389;28;20497;-60
2024/01/12 02:51:57;;;;;;;0.80;0.50;;;;;;;-143.84;46.08;45237.59;5092550;28;21007;-60
2024/01/12 02:54:24;;;;;;;0.80;0.50;;;;;;;-143.84;46.23;45249.00;5092574;28;21049;-60
2024/01/12 02:56:53;;;;;;;0.80;0.60;;;;;;;-143.84;46.22;45250.91;5092438;28;20503;-60
2024/01/12 02:59:20;;;;;;;0.80;0.57;;;;;;;-143.84;46.20;45266.16;5092267;28;20517;-59
2024/01/12 03:01:47;;;;;;;0.80;0.70;;;;;;;-143.84;45.84;45258.53;5092233;28;20438;-60
2024/01/12 03:04:14;;;;;;;0.80;0.60;;;;;;;-143.84;45.78;45231.88;5092090;28;20444;-59
2024/01/12 03:06:41;;;;;;;0.80;0.57;;;;;;;-143.84;45.99;45247.09;5092418;28;20436;-60
2024/01/12 03:09:10;;;;;;;1.10;0.80;;;;;;;-143.84;45.94;45228.06;5092254;28;20433;-60
2024/01/12 03:11:37;;;;;;;0.80;0.50;;;;;;;-143.84;45.77;45250.91;5092075;28;20440;-60
2024/01/12 03:14:05;;;;;;;0.80;0.50;;;;;;;-143.84;45.97;45228.06;5092031;28;20979;-59
2024/01/12 03:16:32;;;;;;;0.80;0.50;;;;;;;-143.84;45.98;45241.41;5091839;28;20494;-60
2024/01/12 03:18:59;;;;;;;0.80;0.50;;;;;;;-143.84;46.06;45235.69;5092306;28;20435;-60
2024/01/12 03:21:26;;;;;;;4.30;1.03;;;;;;;-143.84;46.25;45235.69;5091634;28;20508;-59
2024/01/12 03:23:54;;;;;;;1.00;0.90;;;;;;;-143.84;46.39;45250.91;5092115;28;20501;-60
2024/01/12 03:26:22;;;;;;;0.80;0.60;;;;;;;-143.84;46.38;45216.63;5092062;28;20440;-59
2024/01/12 03:28:49;;;;;;;0.80;0.60;;;;;;;-143.84;46.64;45224.25;5091782;28;20436;-59
2024/01/12 03:31:19;;;;;;;0.80;0.50;;;;;;;-143.84;46.77;45229.97;5091935;28;20821;-59
2024/01/12 03:33:46;;;;;;;0.90;0.77;;;;;;;-143.84;46.90;45224.25;5091652;28;20791;-60
2024/01/12 03:36:14;;;;;;;1.43;0.90;;;;;;;-143.84;47.03;45243.31;5091555;28;20994;-60
2024/01/12 03:38:41;;;;;;;0.80;0.70;;;;;;;-143.84;47.09;45243.31;5091720;28;20901;-60
2024/01/12 03:41:09;;;;;;;2.93;2.17;;;;;;;-143.84;47.09;45256.63;5071612;28;20484;-59
2024/01/12 03:43:36;;;;;;;0.80;0.80;;;;;;;-143.84;47.51;45237.59;5102202;28;20458;-60
2024/01/12 03:46:04;;;;;;;1.10;0.83;;;;;;;-143.84;47.55;45258.53;5112005;28;20497;-59
2024/01/12 03:48:33;;;;;;;0.80;0.50;;;;;;;-143.84;47.79;45245.19;5111514;28;20473;-59
2024/01/12 03:51:00;;;;;;;3.67;1.90;;;;;;;-143.84;47.89;45239.50;5111687;28;20500;-60
2024/01/12 03:53:27;;;;;;;0.80;0.63;;;;;;;-143.84;47.77;45233.78;5111594;28;20435;-60
2024/01/12 03:55:54;;;;;;;0.93;0.80;;;;;;;-143.84;47.80;45250.91;5111389;28;20435;-60
2024/01/12 03:58:21;;;;;;;0.80;0.50;;;;;;;-143.84;47.87;45218.53;5111493;28;20428;-60
2024/01/12 04:00:49;;;;;;;1.00;0.67;;;;;;;-143.84;48.07;45214.72;5111316;28;20532;-60
2024/01/12 04:03:16;;;;;;;1.10;0.80;;;;;;;-143.84;48.11;45231.88;5111262;28;20447;-60
2024/01/12 04:05:45;;;;;;;0.80;0.50;;;;;;;-143.84;48.20;45216.63;5111239;28;20443;-59
2024/01/12 04:08:12;;;;;;;0.80;0.60;;;;;;;-143.84;48.37;45262.34;5111290;28;20455;-60
2024/01/12 04:10:39;;;;;;;0.80;0.50;;;;;;;-143.84;48.36;45226.16;5111359;28;20465;-59
2024/01/12 04:13:06;;;;;;;0.80;0.50;;;;;;;-143.84;48.48;45228.06;5111285;28;20435;-60
2024/01/12 04:15:34;;;;;;;0.80;0.40;;;;;;;-143.84;48.56;45212.84;5111269;28;20431;-60
2024/01/12 04:18:01;;;;;;;0.90;0.80;;;;;;;-143.84;48.61;45260.44;5111312;28;20517;-59
2024/01/12 04:20:28;;;;;;;0.80;0.50;;;;;;;-143.84;48.81;45226.16;5110572;28;20905;-60
2024/01/12 04:22:56;;;;;;;0.80;0.70;;;;;;;-143.84;49.00;45218.53;5106461;28;20443;-60
2024/01/12 04:25:23;;;;;;;0.80;0.60;;;;;;;-143.84;48.63;45266.16;5070075;28;20448;-60
2024/01/12 04:27:50;;;;;;;3.53;1.43;;;;;;;-143.84;49.26;45249.00;5069140;28;20433;-60
2024/01/12 04:30:18;;;;;;;0.80;0.60;;;;;;;-143.84;49.47;45235.69;5070256;28;20926;-59
2024/01/12 04:32:45;;;;;;;1.30;0.80;;;;;;;-143.84;52.44;45258.53;5070192;28;20441;-59
2024/01/12 04:35:12;;;;;;;1.40;1.30;;;;;;;-143.84;49.94;45252.81;5070228;28;21013;-59
2024/01/12 04:37:39;;;;;;;0.80;0.60;;;;;;;-143.84;50.11;45241.41;5069771;28;20448;-59
2024/01/12 04:40:08;;;;;;;1.17;1.07;;;;;;;-143.84;49.99;45210.94;5069547;28;20499;-59
2024/01/12 04:42:35;;;;;;;12.37;1.63;;;;;;;-143.84;49.96;45250.91;5083940;28;20515;-59
2024/01/12 04:45:03;;;;;;;0.83;0.67;;;;;;;-143.84;50.17;45249.00;5100723;28;20489;-59
2024/01/12 04:47:30;;;;;;;0.87;0.83;;;;;;;-143.84;50.19;45250.91;5090171;28;20840;-59
2024/01/12 04:49:57;;;;;;;3.77;1.23;;;;;;;-143.84;50.56;45250.91;5090103;28;20498;-59
2024/01/12 04:52:24;;;;;;;0.80;0.50;;;;;;;-143.84;50.45;45262.34;5090160;28;20938;-59
2024/01/12 04:54:51;;;;;;;0.80;0.60;;;;;;;-143.84;50.16;45231.88;5089664;28;20440;-59
2024/01/12 04:57:20;;;;;;;0.80;0.50;;;;;;;-143.84;50.25;45249.00;5086909;28;20456;-59
2024/01/12 04:59:47;;;;;;;0.80;0.50;;;;;;;-143.84;50.01;45214.72;5089722;28;20814;-59
2024/01/12 05:02:14;;;;;;;0.80;0.70;;;;;;;-143.84;50.08;45226.16;5089857;28;20456;-59
2024/01/12 05:04:41;;;;;;;0.80;0.40;;;;;;;-143.84;50.32;45239.50;5090074;28;20432;-59
2024/01/12 05:07:08;;;;;;;3.30;2.20;;;;;;;-143.84;51.17;45216.63;5090029;28;20444;-59
2024/01/12 05:09:35;;;;;;;0.83;0.60;;;;;;;-143.84;51.79;45233.78;5089550;28;20440;-59
2024/01/12 05:12:04;;;;;;;0.80;0.70;;;;;;;-143.84;53.47;45256.63;5089748;28;20834;-59
2024/01/12 05:14:33;;;;;;;0.90;0.80;;;;;;;-143.84;55.33;45249.00;5089846;28;20439;-59
2024/01/12 05:17:00;;;;;;;0.80;0.60;;;;;;;-143.84;57.10;45228.06;5089627;28;20443;-59
2024/01/12 05:19:27;;;;;;;0.80;0.50;;;;;;;-143.84;57.63;45260.44;5089729;28;20979;-59
2024/01/12 05:21:54;;;;;;;1.23;1.03;;;;;;;-143.84;57.91;45260.44;5089269;28;20479;-59
2024/01/12 05:24:21;;;;;;;0.80;0.60;;;;;;;-143.84;58.53;45228.06;5089437;28;20561;-59
2024/01/12 05:26:48;;;;;;;0.80;0.67;;;;;;;-143.84;58.07;45224.25;5089515;28;20495;-59
2024/01/12 05:29:16;;;;;;;0.80;0.50;;;;;;;-143.84;57.83;45229.97;5089396;28;20448;-59
2024/01/12 05:31:47;;;;;;;0.80;0.50;;;;;;;-143.84;57.77;45233.78;5089885;28;20931;-59
2024/01/12 05:34:14;;;;;;;0.80;0.60;;;;;;;-143.84;58.89;45254.72;5089147;28;20448;-59
2024/01/12 05:36:41;;;;;;;0.80;0.50;;;;;;;-143.84;61.27;45254.72;5089532;28;20443;-59
2024/01/12 05:39:08;;;;;;;1.20;0.93;;;;;;;-143.84;63.74;45239.50;5088185;28;20432;-59
2024/01/12 05:41:36;;;;;;;0.80;0.57;;;;;;;-143.84;66.93;45243.31;5089038;28;20529;-59
2024/01/12 05:44:03;;;;;;;1.03;0.93;;;;;;;-143.84;69.67;45258.53;5108309;28;20508;-59
2024/01/12 05:46:30;;;;;;;0.80;0.50;;;;;;;-143.84;71.15;45226.16;5109696;28;20427;-59
2024/01/12 05:49:03;;;;;;;0.80;0.60;;;;;;;-143.84;72.06;45250.91;5109390;28;20928;-59
2024/01/12 05:51:31;;;;;;;0.90;0.80;;;;;;;-143.84;72.44;45231.88;5109712;28;20263;-59
2024/01/12 05:53:58;;;;;;;0.97;0.93;;;;;;;-143.84;73.08;45233.78;5109493;28;20539;-59
2024/01/12 05:56:25;;;;;;;2.50;1.90;;;;;;;-143.84;73.76;45237.59;5109188;28;20792;-59
2024/01/12 05:58:52;;;;;;;3.43;2.23;;;;;;;-143.84;74.40;45256.63;5109244;28;20492;-59
2024/01/12 06:01:19;;;;;;;2.35;1.02;;;;;;;-143.84;75.01;45239.50;5109353;28;20539;-59
2024/01/12 06:03:46;;;;;;;1.17;1.07;;;;;;;-143.84;75.43;45264.25;5109284;28;20231;-59
2024/01/12 06:06:15;;;;;;;1.43;1.33;;;;;;;-143.84;76.06;45260.44;5109297;28;20525;-59
2024/01/12 06:08:42;;;;;;;1.40;1.30;;;;;;;-143.84;76.45;45228.06;5109137;28;20443;-59
2024/01/12 06:11:09;;;;;;;0.90;0.70;;;;;;;-143.84;77.22;45262.34;5109071;28;20468;-59
2024/01/12 06:13:36;;;;;;;1.33;1.10;;;;;;;-143.84;77.74;45258.53;5102486;28;20874;-59
2024/01/12 06:16:04;;;;;;;2.30;2.03;;;;;;;-143.84;77.80;45279.47;5096211;28;21063;-59
2024/01/12 06:18:31;;;;;;;1.47;1.23;;;;;;;-143.84;77.67;45247.09;5099451;28;20466;-59
2024/01/12 06:20:59;;;;;;;1.35;1.25;;;;;;;-143.84;77.69;45262.34;5104754;28;20474;-59
2024/01/12 06:23:27;;;;;;;2.07;1.87;;;;;;;-143.84;77.80;45239.50;5108308;28;20582;-59
2024/01/12 06:25:54;;;;;;;0.80;0.60;;;;;;;-143.84;77.62;45254.72;5109034;28;20451;-59
2024/01/12 06:28:21;;;;;;;0.80;0.50;;;;;;;-143.84;77.23;45252.81;5109180;28;21256;-59
2024/01/12 06:30:48;;;;;;;3.87;2.93;;;;;;;-143.84;76.93;45218.53;5109260;28;21072;-59
2024/01/12 06:33:16;;;;;;;1.10;0.73;;;;;;;-143.84;76.69;45235.69;5102650;28;20502;-59
2024/01/12 06:35:43;;;;;;;1.20;1.10;;;;;;;-143.84;77.02;45260.44;5105863;28;20442;-59
2024/01/12 06:38:10;;;;;;;0.80;0.50;;;;;;;-143.84;76.60;45262.34;5109181;28;21296;-59
2024/01/12 06:40:40;;;;;;;0.80;0.70;;;;;;;-143.84;76.55;45273.78;5109358;28;20478;-59
2024/01/12 06:43:07;;;;;;;0.80;0.67;;;;;;;-143.84;76.18;45249.00;5109143;28;20439;-59
2024/01/12 06:45:34;;;;;;;1.80;1.70;;;;;;;-143.84;76.09;45252.81;5101748;28;21003;-59
2024/01/12 06:48:01;;;;;;;0.90;0.60;;;;;;;-143.84;75.90;45241.41;5088587;28;20444;-59
2024/01/12 06:50:29;;;;;;;0.80;0.50;;;;;;;-143.84;76.18;45256.63;5090895;28;20200;-59
2024/01/12 06:52:56;;;;;;;1.43;1.33;;;;;;;-143.84;76.45;45228.06;5097109;28;20524;-59
2024/01/12 06:55:24;;;;;;;1.93;1.57;;;;;;;-143.84;76.10;45264.25;5102439;28;20441;-59
2024/01/12 06:57:52;;;;;;;2.70;2.10;;;;;;;-143.84;76.26;45256.63;5102410;28;20932;-59
2024/01/12 07:00:19;;;;;;;1.47;1.37;;;;;;;-143.84;76.08;45277.56;5100266;28;20436;-59
2024/01/12 07:02:47;;;;;;;0.90;0.80;;;;;;;-143.84;76.03;45271.88;5101901;28;20476;-59
2024/01/12 07:05:14;;;;;;;0.90;0.80;;;;;;;-143.84;75.89;45243.31;5101663;28;20833;-59
2024/01/12 07:07:42;;;;;;;0.80;0.57;;;;;;;-143.84;75.80;45254.72;5100354;28;20450;-59
2024/01/12 07:10:11;;;;;;;4.73;1.90;;;;;;;-143.84;75.61;45224.25;5100726;28;20865;-59
2024/01/12 07:12:38;;;;;;;0.90;0.70;;;;;;;-143.84;75.62;45256.63;5099582;28;20892;-59
2024/01/12 07:15:08;;;;;;;1.27;1.17;;;;;;;-143.84;75.35;45216.63;5102676;28;20435;-60
2024/01/12 07:17:36;;;;;;;1.20;1.10;;;;;;;-143.84;75.50;45222.34;5100033;28;20451;-59
2024/01/12 07:20:03;;;;;;;1.00;0.70;;;;;;;-143.84;75.09;45245.19;5094515;28;20484;-59
2024/01/12 07:22:30;;;;;;;0.80;0.60;;;;;;;-143.84;74.67;45262.34;5100186;28;20961;-59
2024/01/12 07:24:57;;;;;;;3.13;2.40;;;;;;;-143.84;74.08;45210.94;5102273;28;20436;-59
2024/01/12 07:27:25;;;;;;;1.77;1.07;;;;;;;-143.84;74.24;45252.81;5097184;28;20491;-59
2024/01/12 07:29:52;;;;;;;0.80;0.50;;;;;;;-143.84;74.14;45235.69;5099901;28;20440;-59
2024/01/12 07:32:20;;;;;;;2.20;2.03;;;;;;;-143.84;73.99;45247.09;5099823;28;20440;-59
2024/01/12 07:34:48;;;;;;;0.80;0.50;;;;;;;-143.84;73.78;45247.09;5102352;28;20440;-59
2024/01/12 07:37:16;;;;;;;1.00;0.87;;;;;;;-143.84;73.45;45249.00;5100633;28;20443;-59
2024/01/12 07:39:43;;;;;;;1.00;0.70;;;;;;;-143.84;73.03;45254.72;5098853;28;20454;-59
2024/01/12 07:42:10;;;;;;;1.00;0.90;;;;;;;-143.84;72.48;45249.00;5100879;28;20472;-59
2024/01/12 07:44:38;;;;;;;1.23;1.13;;;;;;;-143.84;72.67;45271.88;5100661;28;20928;-59
2024/01/12 07:47:05;;;;;;;0.80;0.50;;;;;;;-143.84;72.63;45247.09;5103732;28;20428;-59
2024/01/12 07:49:34;;;;;;;1.10;1.00;;;;;;;-143.84;72.56;45241.41;5100604;28;20445;-59
2024/01/12 07:52:01;;;;;;;2.50;1.23;;;;;;;-143.84;72.42;45233.78;5097883;28;20463;-59
2024/01/12 07:54:28;;;;;;;0.90;0.67;;;;;;;-143.84;72.08;45237.59;5095848;28;20442;-59
2024/01/12 07:56:55;;;;;;;2.63;1.37;;;;;;;-143.84;71.85;45235.69;5099580;28;20440;-59
2024/01/12 07:59:23;;;;;;;0.80;0.50;;;;;;;-143.84;71.29;45254.72;5105150;28;20920;-59
2024/01/12 08:01:53;;;;;;;1.57;1.47;;;;;;;-143.84;71.79;45250.91;5098056;28;20483;-59
2024/01/12 08:04:21;;;;;;;0.80;0.60;;;;;;;-143.84;71.68;45235.69;5100581;28;20961;-59
2024/01/12 08:06:49;;;;;;;0.80;0.63;;;;;;;-143.84;71.62;45245.19;5108132;28;20440;-59
2024/01/12 08:09:16;;;;;;;1.63;1.00;;;;;;;-143.84;72.08;45245.19;5111214;28;20528;-59
2024/01/12 08:11:43;;;;;;;1.27;1.17;;;;;;;-143.84;72.01;45229.97;5111152;28;20450;-59
2024/01/12 08:14:10;;;;;;;1.10;0.80;;;;;;;-143.84;72.11;45231.88;5111201;28;21005;-59
2024/01/12 08:16:38;;;;;;;0.80;0.50;;;;;;;-143.84;72.71;45231.88;5110967;28;20443;-59
2024/01/12 08:19:05;;;;;;;1.23;1.13;;;;;;;-143.84;72.59;45237.59;5111091;28;20954;-59
2024/01/12 08:21:32;;;;;;;0.80;0.50;;;;;;;-143.84;72.82;45252.81;5110402;28;20491;-59
2024/01/12 08:24:00;;;;;;;1.73;0.97;;;;;;;-143.84;72.36;45216.63;5111148;28;20488;-59
2024/01/12 08:26:28;;;;;;;3.10;1.60;;;;;;;-143.84;72.17;45245.19;5110584;28;20436;-59
2024/01/12 08:28:56;;;;;;;0.80;0.67;;;;;;;-143.84;72.09;45241.41;5111077;28;20436;-59
2024/01/12 08:31:23;;;;;;;1.20;1.10;;;;;;;-143.84;72.29;45231.88;5111051;28;21090;-59
2024/01/12 08:33:50;;;;;;;0.90;0.80;;;;;;;-143.84;71.91;45239.50;5110521;28;20469;-59
2024/01/12 08:36:17;;;;;;;1.17;1.07;;;;;;;-143.84;71.64;45254.72;5110753;28;20438;-59
2024/01/12 08:38:44;;;;;;;1.23;0.90;;;;;;;-143.84;71.25;45226.16;5110340;28;20433;-59
2024/01/12 08:41:13;;;;;;;0.83;0.60;;;;;;;-143.84;70.94;45241.41;5107253;28;20819;-59
2024/01/12 08:43:41;;;;;;;0.90;0.80;;;;;;;-143.84;70.67;45231.88;5105440;28;20459;-59
2024/01/12 08:46:08;;;;;;;0.80;0.50;;;;;;;-143.84;69.76;45231.88;5096581;28;20444;-59
2024/01/12 08:48:35;;;;;;;4.60;1.37;;;;;;;-143.84;69.26;45220.44;5090125;28;20446;-59
2024/01/12 08:51:03;;;;;;;1.73;0.80;;;;;;;-143.84;68.87;45228.06;5090160;28;20489;-58
2024/01/12 08:53:30;;;;;;;1.00;0.90;;;;;;;-143.84;68.56;45222.34;5091016;28;20817;-59
2024/01/12 08:55:57;;;;;;;0.80;0.60;;;;;;;-143.84;67.73;45245.19;5098479;28;20436;-59
2024/01/12 08:58:25;;;;;;;0.80;0.50;;;;;;;-143.84;67.76;45209.03;5094370;28;20498;-59
2024/01/12 09:00:53;;;;;;;0.90;0.80;;;;;;;-143.84;66.31;45231.88;5099767;28;20439;-58
2024/01/12 09:03:20;;;;;;;3.23;1.50;;;;;;;-143.84;66.28;45243.31;5098180;28;20933;-59
2024/01/12 09:05:47;;;;;;;3.10;1.70;;;;;;;-143.84;66.31;45210.94;5098457;28;20434;-59
2024/01/12 09:08:14;;;;;;;0.83;0.47;;;;;;;-143.84;66.01;45229.97;5100748;28;20799;-59
2024/01/12 09:10:41;;;;;;;1.67;1.57;;;;;;;-143.84;65.18;45239.50;5097364;28;20434;-59
2024/01/12 09:13:08;;;;;;;0.90;0.77;;;;;;;-143.84;65.60;45226.16;5100104;28;20509;-59
2024/01/12 09:15:37;;;;;;;0.90;0.80;;;;;;;-143.84;64.22;45205.22;5098815;28;20458;-59
2024/01/12 09:18:05;;;;;;;0.90;0.70;;;;;;;-143.84;63.97;45199.50;5103437;28;20453;-59
2024/01/12 09:20:32;;;;;;;1.43;0.90;;;;;;;-143.84;64.23;45224.25;5091706;28;20509;-59
2024/01/12 09:23:00;;;;;;;0.80;0.50;;;;;;;-143.84;64.37;45216.63;5068780;28;20488;-59
2024/01/12 09:25:27;;;;;;;0.80;0.60;;;;;;;-143.84;64.55;45222.34;5054836;28;20457;-59
2024/01/12 09:27:57;;;;;;;0.90;0.70;;;;;;;-143.84;64.66;45210.94;5052022;28;20837;-59
2024/01/12 09:30:24;;;;;;;0.90;0.60;;;;;;;-143.84;64.80;45226.16;5066431;28;20440;-59
2024/01/12 09:32:52;;;;;;;2.30;0.90;;;;;;;-143.84;64.96;45220.44;5068543;28;20970;-59
2024/01/12 09:35:20;;;;;;;0.80;0.50;;;;;;;-143.84;65.18;45214.72;5068546;28;20435;-59
2024/01/12 09:37:47;;;;;;;1.73;1.27;;;;;;;-143.84;65.16;45205.22;5068807;28;20447;-59
2024/01/12 09:40:14;;;;;;;2.60;1.90;;;;;;;-143.84;64.24;45218.53;5068113;28;20465;-59
2024/01/12 09:42:44;;;;;;;1.93;1.67;;;;;;;-143.84;64.45;45212.84;5068693;28;20998;-59
2024/01/12 09:45:14;;;;;;;0.80;0.50;;;;;;;-143.84;64.60;45229.97;5059633;28;20449;-59
2024/01/12 09:47:42;;;;;;;0.90;0.53;;;;;;;-143.84;64.82;45218.53;5076758;28;20441;-59
2024/01/12 09:50:11;;;;;;;1.70;1.03;;;;;;;-143.84;65.74;45209.03;5080178;28;20455;-59
2024/01/12 09:52:39;;;;;;;3.73;2.83;;;;;;;-143.84;65.15;45229.97;5071636;28;20441;-59
2024/01/12 09:55:07;;;;;;;2.50;1.37;;;;;;;-143.84;65.83;45209.03;5059872;28;20579;-59
2024/01/12 09:57:35;;;;;;;1.47;1.37;;;;;;;-143.84;65.34;45243.31;5062832;28;20474;-59
2024/01/12 10:00:05;;;;;;;1.73;1.63;;;;;;;-143.84;65.08;45205.22;5068673;28;20451;-59
2024/01/12 10:02:32;;;;;;;0.80;0.67;;;;;;;-143.84;64.53;45237.59;5068810;28;20514;-59
2024/01/12 10:05:00;;;;;;;0.80;0.60;;;;;;;-143.84;65.50;45214.72;5068532;28;20520;-59
2024/01/12 10:07:28;;;;;;;1.07;0.97;;;;;;;-143.84;65.02;45228.06;5068806;28;20498;-59
2024/01/12 10:09:55;;;;;;;1.57;1.47;;;;;;;-143.84;65.47;45243.31;5068827;28;20451;-59
2024/01/12 10:12:23;;;;;;;5.43;1.87;;;;;;;-143.84;65.24;45216.63;5068828;28;20894;-59
2024/01/12 10:15:00;;;;;;;0.90;0.77;;;;;;;-143.84;66.00;45229.97;5068417;28;20441;-59
2024/01/12 10:17:28;;;;;;;1.50;1.40;;;;;;;-143.84;65.53;45226.16;5042034;28;21016;-60
2024/01/12 10:19:56;;;;;;;1.87;1.50;;;;;;;-143.84;65.66;45229.97;5051925;28;20484;-59
2024/01/12 10:22:23;;;;;;;0.90;0.80;;;;;;;-143.84;65.45;45209.03;5090800;28;20477;-59
2024/01/12 10:24:59;;;;;;;2.23;2.03;;;;;;;-143.84;65.47;45231.88;5097725;28;20457;-59
2024/01/12 10:27:27;;;;;;;1.00;0.90;;;;;;;-143.84;64.96;45205.22;5100065;28;20449;-59
2024/01/12 10:29:54;;;;;;;5.50;3.50;;;;;;;-143.84;64.73;45243.31;5098676;28;20499;-59
2024/01/12 10:32:22;;;;;;;0.90;0.70;;;;;;;-143.84;65.38;45218.53;5102223;28;20454;-59
2024/01/12 10:34:49;;;;;;;1.00;0.80;;;;;;;-143.84;65.05;45235.69;5100659;28;20528;-59
2024/01/12 10:37:17;;;;;;;8.00;2.30;;;;;;;-143.84;65.20;45252.81;5098179;28;20432;-59
2024/01/12 10:39:46;;;;;;;2.03;1.87;;;;;;;-143.84;65.22;45231.88;5105441;28;20466;-59
2024/01/12 10:42:16;;;;;;;1.00;0.90;;;;;;;-143.84;64.90;45180.47;5097650;28;20488;-60
2024/01/12 10:44:45;;;;;;;1.23;1.13;;;;;;;-143.84;64.99;45245.19;5092021;28;20539;-59
2024/01/12 10:47:16;;;;;;;1.43;1.27;;;;;;;-143.84;64.32;45222.34;5091227;28;20458;-59
2024/01/12 10:49:49;;;;;;;1.77;1.10;;;;;;;-143.84;63.51;45201.41;5091335;28;20533;-59
2024/01/12 10:52:29;;;;;;;1.10;1.00;;;;;;;-143.84;63.18;45220.44;5092064;28;20450;-59
2024/01/12 10:55:00;;;;;;;2.50;1.67;;;;;;;-143.84;62.90;45197.59;5091827;28;20453;-59
2024/01/12 10:57:30;;;;;;;4.00;1.70;;;;;;;-143.84;62.83;45220.44;5091959;28;20442;-59
2024/01/12 10:59:59;;;;;;;2.20;2.00;;;;;;;-143.84;63.15;45212.84;5092521;28;20553;-59
2024/01/12 11:02:27;;;;;;;0.80;0.50;;;;;;;-143.84;62.39;45205.22;5092386;28;21050;-60
2024/01/12 11:04:56;;;;;;;1.53;1.13;;;;;;;-143.84;61.23;45216.63;5092532;28;20762;-60
2024/01/12 11:07:23;;;;;;;0.83;0.57;;;;;;;-143.84;60.47;45209.03;5092405;28;20443;-60
2024/01/12 11:09:51;;;;;;;2.70;1.93;;;;;;;-143.84;60.89;45222.34;5092081;28;20447;-60
2024/01/12 11:12:27;;;;;;;0.90;0.77;;;;;;;-143.84;59.96;45228.06;5097862;28;20434;-59
2024/01/12 11:14:56;;;;;;;2.50;0.93;;;;;;;-143.84;60.27;45222.34;5097050;28;20462;-59
2024/01/12 11:17:28;;;;;;;1.00;0.73;;;;;;;-143.84;59.75;45201.41;5102272;28;20440;-59
2024/01/12 11:20:05;;;;;;;1.00;0.80;;;;;;;-143.84;59.22;45203.31;5091359;28;20919;-59